Friday, November 24, 2017, 12:28 AM EST
Back to Local

KBGR, Bangor Int'l Airport

Location: Bangor, ME, United States Lat: 44.8
Local Time: 12:28 AM EST ( 5:28 GMT) Lon: -68.817
Time Zone: US/Eastern Elev: 193 ft

Show me the last for .
Show Decoded

2017-11-23 23:53 METAR KBGR 240453Z 19003KT 10SM BKN110 M02/M07 A2989 RMK AO2 SLP126 T10171072
                 400281028 =
2017-11-23 22:53 METAR KBGR 240353Z 19004KT 10SM OVC100 M02/M07 A2990 RMK AO2 SLP127 T10171072 =
2017-11-23 21:53 METAR KBGR 240253Z 00000KT 10SM OVC100 M02/M07 A2991 RMK AO2 SLP130 T10171072
                 58011 =
2017-11-23 20:53 METAR KBGR 240153Z 00000KT 10SM OVC100 M02/M08 A2992 RMK AO2 SLP135 T10171083 =
2017-11-23 19:53 METAR KBGR 240053Z 00000KT 10SM OVC100 M02/M08 A2994 RMK AO2 SLP140 T10171078 =
2017-11-23 18:53 METAR KBGR 232353Z 00000KT 10SM SCT120 BKN250 M02/M08 A2994 RMK AO2 SLP141
                 T10221083 10017 21022 50003 =
2017-11-23 17:53 METAR KBGR 232253Z 32003KT 10SM BKN120 BKN250 M01/M09 A2994 RMK AO2 SLP141
                 T10111094 =
2017-11-23 16:53 METAR KBGR 232153Z 33006KT 10SM BKN120 BKN250 M02/M08 A2993 RMK AO2 SLP139
                 T10171083 =
2017-11-23 15:53 METAR KBGR 232053Z 32008KT 10SM FEW110 SCT250 M01/M09 A2993 RMK AO2 SLP138
                 T10111089 53004 =
2017-11-23 14:53 METAR KBGR 231953Z 30009KT 10SM FEW130 SCT200 01/M10 A2992 RMK AO2 SLP135
                 T00061100 =
2017-11-23 13:53 METAR KBGR 231853Z 31014G18KT 10SM FEW130 SCT200 01/M09 A2990 RMK AO2 SLP127
                 T00111094 =
2017-11-23 12:53 METAR KBGR 231753Z 28010KT 10SM FEW130 BKN200 01/M09 A2992 RMK AO2 SLP133
                 T00061094 10011 21028 56013 =
2017-11-23 11:53 METAR KBGR 231653Z 29007KT 10SM FEW130 BKN200 00/M10 A2992 RMK AO2 SLP133
                 T00001100 =
2017-11-23 10:53 METAR KBGR 231553Z 30010KT 10SM FEW050 FEW130 SCT200 M01/M09 A2993 RMK AO2
                 SLP136 T10061089 =
2017-11-23 09:53 METAR KBGR 231453Z 31008KT 10SM FEW040 FEW120 SCT200 M01/M09 A2996 RMK AO2
                 SLP146 T10111089 50020 =
2017-11-23 08:53 METAR KBGR 231353Z 30010KT 10SM FEW040 SCT200 M02/M09 A2996 RMK AO2 SLP146
                 T10221089 =
2017-11-23 07:53 METAR KBGR 231253Z 31012G16KT 10SM FEW040 FEW150 M03/M09 A2993 RMK AO2 PK WND
                 30026/1218 SLP139 T10281089 =
2017-11-23 06:53 METAR KBGR 231153Z 29011G18KT 10SM FEW040 M03/M08 A2990 RMK AO2 SLP126 70091
                 T10281083 10017 21028 53013 =
2017-11-23 05:53 METAR KBGR 231053Z VRB06KT 10SM FEW045 M02/M07 A2988 RMK AO2 SLP122 T10221067 =
2017-11-23 04:53 METAR KBGR 230953Z 30012G25KT 10SM CLR M02/M07 A2986 RMK AO2 PK WND 31027/0934
                 SLP113 T10171067 =
2017-11-23 03:53 METAR KBGR 230853Z 31013KT 10SM FEW043 M01/M06 A2986 RMK AO2 SLP113 T10061056
                 53029 =
2017-11-23 02:53 METAR KBGR 230753Z 30014G22KT 10SM FEW040 01/M04 A2982 RMK AO2 SLP099 T00061044
                 =
2017-11-23 01:53 METAR KBGR 230653Z 29013G20KT 10SM BKN039 01/M03 A2980 RMK AO2 SLP093 T00111033
                 =
2017-11-23 00:53 METAR KBGR 230553Z 31011G19KT 10SM SCT070 02/M02 A2977 RMK AO2 SLP083 60011
                 T00171017 10039 20017 53011 =

Support USWX by starting your Amazon purchase here.